Airfield :
LOGIN :

Register | Disclaimer

   EN    FR    IT 

 










Legend :    VFR   Marginal VFR   IFR   Intensive IFR   Very Intensive IFR
Visi :
Ceiling :
>= 8 km
>= 3000ft
5 to 8 km
1000 to 3000 ft
1500m to 5 km
500 to 1000 ft
800 to 1500m
200 to 500 ft
< 800m
< 200 ft
Symbols :   Thunderstorms  Fog  Heavy snow  Heavy precipitations  Wind > 20 kt
SIGMETs :     Misc.  Thunderstorms  Icing  Turbulence  Mountain Waves  Volcanic Ashes






- Airport Elevation : 194 ft


EBCV - Chièvres

CURRENT METAR :
  • 252312Z AUTO 27019KT 3300 RA OVC019/// 09/07 Q1000 YLO

EXPIRED METARs :
  • 252303Z AUTO 27020KT 9999 -RA OVC023/// 09/07 Q1000 WHT
  • 252241Z AUTO 28020KT 6000 +DZ OVC025/// 10/07 Q1001 WHT
  • 252155Z AUTO 28021KT 9999 OVC031/// 11/06 Q1000 BLU
  • 252125Z AUTO 29020G33KT 9999 OVC036/// 11/06 Q1001 BLU
  • 252055Z AUTO 28022G34KT 9999 OVC030/// 10/06 Q1001 BLU
  • 252025Z AUTO 29022G35KT 9999 -RA OVC026/// 11/07 Q1000 BLU

TAF TAF EBCV
Valid from the 25 at 19:00 until the 26 at 07:00 UTC


251541Z 2519/2607 28015G35KT 9999 SCT015 BKN020
TEMPO 2519/2607 28015G35KT 4000 -SHRA BKN014
PROB30
TEMPO 2519/2607 28020G40KT 3000 SHRA -TSRA SCT010 BKN012CB BY EBWM



MET'MAP, your aeronautical weather chart ! - Copyright ORBIFLY December 2007 - Disclaimer

ORBIFLY MET'MAP TEAM :

Programming & Development : Alexandra Zaïnal
Concept & original design : Baudouin d'Aumeries
Assistance for programming : Marc-Olivier Méhu
Technical & hardware support : Manuel Goepfert

Contact : metmap@orbifly.com




SOURCES & CREDITS :

   NOAA